LiveATC.Net - Listen to live air traffic control over the Internet!


ICAO: E79  IATA: E79   Airport: Sierra Sky Park Airport
City: Fresno   State/Province: California
Country: United States   Continent: North America
KFAT METAR Weather: KFAT 140053Z 31008KT 10SM FEW100 FEW150 38/M01 A2988 RMK AO2 SLP115 CU OMTNS DSNT NE SE MTNS OBSC FU HZ DSNT E-S T03781011
E79 Flight Activity (FlightAware)

KFCH/KMAE/E79 CTAF
Feed Status: UP   Listeners: 0
Listen in your browser - HTML5 player (in browser, HTML5)
Click here to listen with your own player (launches your MP3 player)
Archive Access: KFCH/KMAE/E79 CTAF
FacilityFrequency
Emergency/Guard121.500
Fresno/Chandler CTAF123.000
Madera CTAF122.800
Reedly O32 CTAF122.700
Skypark E79 CTAF122.900

NOTICE

Unauthorized use prohibited. See LiveATC.net Terms of Service


Airport/ARTCC Code
Frequency Search
(e.g., 124.400, 128.75)
Site-wide search
 


Browse Feeds
Top 50 Feeds
HF Oceanic Feeds
Coverage Map
Bad Weather Areas

LiveATC FAQ
Offer LiveATC feed
Contact LiveATC.net
Press Inquiries

LiveATC on iPhone
LiveATC on Android

LiveATC Mobile
(Mobile browser)

ATC Audio Archives
Interesting Recordings

LiveATC Forums


Home Page
About LiveATC.net


Terms of Use
Privacy Policy

AIRMETs/SIGMETs

FAA Airport Status
NAS Status
Arrival Demand


Server Software By:
Icecast.org
Liquidsoap